createdAt,value
2023-08-17T00:01:45.011Z,8.40
2023-08-17T00:04:15.997Z,7.50
2023-08-17T00:06:48.095Z,3.90
2023-08-17T00:09:19.079Z,5.10
2023-08-17T00:11:49.793Z,6.50
2023-08-17T00:14:20.496Z,10.90
2023-08-17T00:16:53.146Z,4.80
2023-08-17T00:19:24.490Z,5.50
2023-08-17T00:21:56.452Z,8.70
2023-08-17T00:24:27.170Z,7.80
2023-08-17T00:26:58.035Z,11.30
2023-08-17T00:29:28.787Z,3.40
2023-08-17T00:31:59.863Z,7.20
2023-08-17T00:34:30.812Z,5.00
2023-08-17T00:37:01.758Z,3.00
2023-08-17T00:39:32.693Z,5.80
2023-08-17T00:42:03.365Z,6.20
2023-08-17T00:44:34.104Z,5.80
2023-08-17T00:47:05.858Z,5.40
2023-08-17T00:49:37.847Z,4.30
2023-08-17T00:52:09.678Z,3.20
2023-08-17T00:54:41.450Z,5.30
2023-08-17T00:57:12.424Z,8.50
2023-08-17T00:59:47.169Z,4.10
2023-08-17T01:02:23.645Z,8.10
2023-08-17T01:04:54.516Z,4.30
2023-08-17T01:07:25.807Z,7.80
2023-08-17T01:09:56.808Z,5.50
2023-08-17T01:12:31.663Z,8.00
2023-08-17T01:15:23.250Z,4.40
2023-08-17T01:17:58.797Z,7.00
2023-08-17T01:20:32.542Z,6.50
2023-08-17T01:23:08.496Z,4.80
2023-08-17T01:25:39.654Z,7.20
2023-08-17T01:28:10.529Z,8.00
2023-08-17T01:30:47.145Z,9.20
2023-08-17T01:33:23.257Z,5.70
2023-08-17T01:36:03.630Z,5.40
2023-08-17T01:38:35.255Z,5.80
2023-08-17T01:41:09.232Z,4.30
2023-08-17T01:43:40.586Z,6.00
2023-08-17T01:46:12.020Z,5.20
2023-08-17T01:48:43.308Z,8.60
2023-08-17T01:51:19.206Z,7.40
2023-08-17T01:53:50.322Z,8.00
2023-08-17T01:56:21.171Z,4.90
2023-08-17T01:58:51.816Z,9.50
2023-08-17T02:01:22.660Z,4.80
2023-08-17T02:03:54.110Z,6.40
2023-08-17T02:06:25.530Z,8.30
2023-08-17T02:08:56.381Z,5.50
2023-08-17T02:11:28.135Z,3.90
2023-08-17T02:13:58.847Z,6.30
2023-08-17T02:16:29.983Z,5.80
2023-08-17T02:19:00.536Z,9.60
2023-08-17T02:21:31.311Z,7.60
2023-08-17T02:24:02.266Z,6.00
2023-08-17T02:26:33.310Z,6.80
2023-08-17T02:29:04.399Z,4.70
2023-08-17T02:31:35.742Z,9.20
2023-08-17T02:34:07.150Z,6.80
2023-08-17T02:36:37.782Z,4.00
2023-08-17T02:39:09.178Z,7.60
2023-08-17T02:41:40.350Z,5.10
2023-08-17T02:44:11.520Z,9.80
2023-08-17T02:46:42.116Z,4.80
2023-08-17T02:49:13.038Z,5.20
2023-08-17T02:51:44.120Z,6.60
2023-08-17T02:54:14.753Z,5.70
2023-08-17T02:56:45.720Z,4.10
2023-08-17T02:59:16.317Z,3.90
2023-08-17T03:01:47.746Z,3.80
2023-08-17T03:04:18.330Z,4.40
2023-08-17T03:06:49.279Z,3.20
2023-08-17T03:09:19.759Z,4.40
2023-08-17T03:11:50.706Z,4.60
2023-08-17T03:14:21.680Z,3.80
2023-08-17T03:16:52.921Z,5.90
2023-08-17T03:19:23.491Z,4.30
2023-08-17T03:21:54.856Z,5.40
2023-08-17T03:24:25.777Z,3.80
2023-08-17T03:26:56.855Z,4.80
2023-08-17T03:29:28.181Z,4.20
2023-08-17T03:31:58.903Z,4.40
2023-08-17T03:34:29.844Z,4.80
2023-08-17T03:37:01.125Z,3.40
2023-08-17T03:39:31.992Z,4.10
2023-08-17T03:42:03.248Z,4.50
2023-08-17T03:44:34.165Z,4.90
2023-08-17T03:47:04.841Z,6.90
2023-08-17T03:49:35.711Z,5.50
2023-08-17T03:52:07.377Z,5.70
2023-08-17T03:54:38.148Z,3.50
2023-08-17T03:57:09.316Z,5.60
2023-08-17T03:59:39.995Z,5.60
2023-08-17T04:02:10.900Z,7.70
2023-08-17T04:04:41.579Z,6.50
2023-08-17T04:07:12.949Z,4.60
2023-08-17T04:09:47.246Z,4.70
2023-08-17T04:12:17.856Z,4.00
2023-08-17T04:14:48.919Z,4.90
2023-08-17T04:17:19.935Z,5.10
2023-08-17T04:19:51.138Z,10.70
2023-08-17T04:22:21.776Z,10.20
2023-08-17T04:24:52.723Z,4.90
2023-08-17T04:27:23.737Z,4.60
2023-08-17T04:29:54.942Z,6.20
2023-08-17T04:32:25.703Z,6.20
2023-08-17T04:34:56.602Z,5.90
2023-08-17T04:37:28.278Z,4.00
2023-08-17T04:39:59.706Z,13.70
2023-08-17T04:42:30.584Z,4.10
2023-08-17T04:45:01.631Z,6.00
2023-08-17T04:47:32.199Z,5.10
2023-08-17T04:50:03.053Z,6.40
2023-08-17T04:52:33.820Z,5.10
2023-08-17T04:55:05.018Z,6.80
2023-08-17T04:57:36.000Z,4.70
2023-08-17T05:00:10.782Z,5.30
2023-08-17T05:02:41.727Z,6.40
2023-08-17T05:05:15.138Z,4.50
2023-08-17T05:07:45.750Z,4.20
2023-08-17T05:10:16.740Z,4.40
2023-08-17T05:12:48.151Z,5.70
2023-08-17T05:15:18.699Z,4.30
2023-08-17T05:17:49.392Z,4.70
2023-08-17T05:20:21.962Z,7.20
2023-08-17T05:22:52.620Z,7.00
2023-08-17T05:25:24.073Z,5.20
2023-08-17T05:27:54.906Z,5.90
2023-08-17T05:30:25.648Z,4.50
2023-08-17T05:32:56.906Z,4.30
2023-08-17T05:35:27.960Z,4.20
2023-08-17T05:37:59.515Z,5.80
2023-08-17T05:40:31.348Z,4.70
2023-08-17T05:43:02.018Z,4.40
2023-08-17T05:45:32.658Z,3.80
2023-08-17T05:48:03.708Z,5.40
2023-08-17T05:50:34.735Z,9.30
2023-08-17T05:53:05.696Z,6.30
2023-08-17T05:55:36.620Z,5.50
2023-08-17T05:58:07.501Z,4.90
2023-08-17T06:00:38.729Z,3.50
2023-08-17T06:03:10.165Z,5.30
2023-08-17T06:05:41.717Z,5.80
2023-08-17T06:08:12.245Z,3.60
2023-08-17T06:10:43.100Z,5.90
2023-08-17T06:13:14.016Z,5.50
2023-08-17T06:15:44.673Z,4.70
2023-08-17T06:18:15.384Z,4.40
2023-08-17T06:20:47.559Z,3.80
2023-08-17T06:23:18.152Z,7.60
2023-08-17T06:25:48.786Z,6.80
2023-08-17T06:28:20.055Z,6.30
2023-08-17T06:30:53.480Z,3.90
2023-08-17T06:33:25.096Z,4.40
2023-08-17T06:35:55.940Z,3.40
2023-08-17T06:38:26.897Z,3.40
2023-08-17T06:40:57.636Z,10.10
2023-08-17T06:43:28.189Z,4.30
2023-08-17T06:46:01.522Z,4.30
2023-08-17T06:48:33.453Z,3.80
2023-08-17T06:51:05.861Z,5.90
2023-08-17T06:53:37.121Z,8.90
2023-08-17T06:56:08.692Z,2.80
2023-08-17T06:58:39.546Z,2.90
2023-08-17T07:01:10.883Z,3.20
2023-08-17T07:03:41.812Z,2.70
2023-08-17T07:06:13.861Z,2.70
2023-08-17T07:08:44.658Z,4.00
2023-08-17T07:11:15.388Z,8.30
2023-08-17T07:13:46.738Z,4.80
2023-08-17T07:16:17.438Z,5.30
2023-08-17T07:18:48.163Z,6.40
2023-08-17T07:21:18.606Z,3.50
2023-08-17T07:23:49.923Z,3.00
2023-08-17T07:26:21.519Z,6.70
2023-08-17T07:28:52.477Z,6.50
2023-08-17T07:31:23.154Z,2.70
2023-08-17T07:33:53.944Z,2.90
2023-08-17T07:36:24.807Z,5.20
2023-08-17T07:38:55.723Z,3.00
2023-08-17T07:41:27.097Z,4.30
2023-08-17T07:43:58.282Z,3.00
2023-08-17T07:46:28.927Z,3.30
2023-08-17T07:48:59.898Z,2.60
2023-08-17T07:51:31.140Z,3.00
2023-08-17T07:54:02.527Z,2.60
2023-08-17T07:56:33.300Z,2.50
2023-08-17T07:59:04.074Z,5.50
2023-08-17T08:01:35.389Z,2.60
2023-08-17T08:04:06.546Z,3.20
2023-08-17T08:06:37.319Z,2.60
2023-08-17T08:09:08.922Z,2.90
2023-08-17T08:11:39.474Z,3.00
2023-08-17T08:14:10.591Z,4.40
2023-08-17T08:16:41.836Z,4.00
2023-08-17T08:19:12.489Z,4.30
2023-08-17T08:21:43.227Z,3.00
2023-08-17T08:24:22.202Z,2.60
2023-08-17T08:27:01.951Z,2.90
2023-08-17T08:29:32.616Z,2.40
2023-08-17T08:32:04.537Z,2.30
2023-08-17T08:34:35.423Z,4.90
2023-08-17T08:37:06.732Z,4.40
2023-08-17T08:39:52.628Z,2.50
2023-08-17T08:42:24.360Z,2.50
2023-08-17T08:44:55.389Z,4.50
2023-08-17T08:47:28.142Z,3.10
2023-08-17T08:50:03.707Z,3.60
2023-08-17T08:52:37.803Z,5.10
2023-08-17T08:55:14.189Z,2.40
2023-08-17T08:57:51.662Z,3.20
2023-08-17T09:00:23.239Z,3.30
2023-08-17T09:02:54.634Z,2.40
2023-08-17T09:05:26.108Z,2.70
2023-08-17T09:07:58.720Z,4.70
2023-08-17T09:10:31.814Z,2.70
2023-08-17T09:13:03.450Z,3.20
2023-08-17T09:15:34.210Z,3.80
2023-08-17T09:18:07.435Z,2.70
2023-08-17T09:20:47.332Z,3.10
2023-08-17T09:23:21.202Z,6.20
2023-08-17T09:25:58.980Z,5.70
2023-08-17T09:28:32.384Z,6.20
2023-08-17T09:31:04.870Z,2.90
2023-08-17T09:33:36.603Z,3.10
2023-08-17T09:36:07.823Z,2.80
2023-08-17T09:38:39.466Z,2.80
2023-08-17T09:41:10.444Z,4.20
2023-08-17T09:43:41.014Z,4.90
2023-08-17T09:46:13.010Z,9.20
2023-08-17T09:48:45.282Z,3.80
2023-08-17T09:51:18.551Z,6.50
2023-08-17T09:54:00.019Z,3.50
2023-08-17T09:56:31.846Z,4.80
2023-08-17T09:59:02.429Z,3.70
2023-08-17T10:01:33.634Z,5.40
2023-08-17T10:04:06.356Z,4.30
2023-08-17T10:06:41.244Z,3.80
2023-08-17T10:09:17.086Z,3.70
2023-08-17T10:11:53.869Z,4.30
2023-08-17T10:14:31.690Z,4.00
2023-08-17T10:17:11.420Z,4.50
2023-08-17T10:19:53.008Z,5.10
2023-08-17T10:22:30.578Z,3.90
2023-08-17T10:25:02.582Z,6.60
2023-08-17T10:27:34.539Z,6.40
2023-08-17T10:30:09.305Z,6.70
2023-08-17T10:32:42.590Z,4.40
2023-08-17T10:35:13.600Z,7.60
2023-08-17T10:37:44.935Z,3.90
2023-08-17T10:40:16.078Z,3.60
2023-08-17T10:42:55.681Z,4.30
2023-08-17T10:45:37.994Z,6.00
2023-08-17T10:48:30.292Z,4.30
2023-08-17T10:51:06.430Z,4.60
2023-08-17T10:53:44.274Z,9.30
2023-08-17T10:56:18.752Z,4.20
2023-08-17T10:58:53.353Z,9.70
2023-08-17T11:01:38.039Z,5.00
2023-08-17T11:04:18.709Z,7.10
2023-08-17T11:07:02.472Z,5.10
2023-08-17T11:09:33.365Z,6.50
2023-08-17T11:12:06.964Z,4.70
2023-08-17T11:14:38.116Z,8.40
2023-08-17T11:17:11.465Z,5.80
2023-08-17T11:19:45.584Z,4.80
2023-08-17T11:22:17.926Z,6.80
2023-08-17T11:24:52.077Z,6.70
2023-08-17T11:27:24.125Z,7.70
2023-08-17T11:29:55.670Z,9.70
2023-08-17T11:32:26.964Z,8.30
2023-08-17T11:34:59.627Z,9.80
2023-08-17T11:37:30.693Z,6.00
2023-08-17T11:40:01.432Z,8.60
2023-08-17T11:42:32.546Z,13.20
2023-08-17T11:45:03.962Z,9.10
2023-08-17T11:47:35.104Z,12.20
2023-08-17T11:50:19.164Z,10.40
2023-08-17T11:52:51.579Z,9.90
2023-08-17T11:55:22.618Z,12.40
2023-08-17T11:57:53.563Z,8.70
2023-08-17T12:00:26.706Z,7.60
2023-08-17T12:02:57.755Z,7.70
2023-08-17T12:05:30.274Z,10.90
2023-08-17T12:08:01.732Z,8.90
2023-08-17T12:10:33.029Z,8.00
2023-08-17T12:13:04.038Z,7.80
2023-08-17T12:15:36.698Z,10.00
2023-08-17T12:18:08.536Z,10.50
2023-08-17T12:20:39.456Z,12.10
2023-08-17T12:23:10.170Z,10.40
2023-08-17T12:25:40.915Z,17.90
2023-08-17T12:28:14.531Z,9.80
2023-08-17T12:30:45.667Z,9.80
2023-08-17T12:33:17.279Z,11.20
2023-08-17T12:35:48.481Z,10.80
2023-08-17T12:38:19.034Z,9.00
2023-08-17T12:40:49.811Z,9.80
2023-08-17T12:43:20.646Z,12.70
2023-08-17T12:45:52.382Z,8.70
2023-08-17T12:48:22.934Z,9.60
2023-08-17T12:50:53.717Z,12.70
2023-08-17T12:53:24.314Z,13.70
2023-08-17T12:55:56.442Z,9.70
2023-08-17T12:58:27.217Z,11.90
2023-08-17T13:00:58.657Z,11.20
2023-08-17T13:03:29.779Z,13.10
2023-08-17T13:06:00.385Z,11.90
2023-08-17T13:08:31.765Z,7.30
2023-08-17T13:11:02.333Z,13.80
2023-08-17T13:13:32.973Z,10.10
2023-08-17T13:16:05.376Z,16.20
2023-08-17T13:18:37.559Z,15.50
2023-08-17T13:21:09.087Z,12.90
2023-08-17T13:23:40.950Z,12.90
2023-08-17T13:26:11.930Z,12.40
2023-08-17T13:28:43.130Z,12.30
2023-08-17T13:31:23.963Z,10.40
2023-08-17T13:33:55.866Z,9.20
2023-08-17T13:36:27.150Z,11.30
2023-08-17T13:38:58.368Z,11.20
2023-08-17T13:41:29.492Z,11.60
2023-08-17T13:44:02.064Z,11.50
2023-08-17T13:46:32.792Z,11.20
2023-08-17T13:49:03.821Z,10.30
2023-08-17T13:51:34.555Z,10.30
2023-08-17T13:54:05.811Z,10.70
2023-08-17T13:56:36.816Z,8.20
2023-08-17T13:59:07.883Z,9.60
2023-08-17T14:01:39.026Z,14.40
2023-08-17T14:04:12.680Z,8.70
2023-08-17T14:06:43.913Z,11.80
2023-08-17T14:09:14.763Z,8.10
2023-08-17T14:11:45.691Z,8.40
2023-08-17T14:14:16.963Z,6.90
2023-08-17T14:16:47.640Z,12.20
2023-08-17T14:19:18.834Z,12.00
2023-08-17T14:21:49.526Z,13.80
2023-08-17T14:24:20.293Z,9.30
2023-08-17T14:26:51.407Z,10.70
2023-08-17T14:29:22.171Z,11.20
2023-08-17T14:31:56.050Z,10.70
2023-08-17T14:34:27.827Z,9.60
2023-08-17T14:36:58.577Z,9.70
2023-08-17T14:39:29.526Z,11.40
2023-08-17T14:42:00.575Z,9.00
2023-08-17T14:44:31.848Z,9.50
2023-08-17T14:47:02.767Z,9.80
2023-08-17T14:49:33.254Z,9.10
2023-08-17T14:52:04.644Z,10.50
2023-08-17T14:54:35.224Z,10.60
2023-08-17T14:57:06.777Z,10.60
2023-08-17T14:59:38.176Z,10.20
2023-08-17T15:02:10.573Z,8.20
2023-08-17T15:04:41.913Z,15.00
2023-08-17T15:07:12.665Z,7.90
2023-08-17T15:09:43.341Z,9.40
2023-08-17T15:12:13.997Z,7.60
2023-08-17T15:14:44.863Z,9.10
2023-08-17T15:17:15.937Z,10.40
2023-08-17T15:19:46.520Z,8.90
2023-08-17T15:22:17.595Z,8.50
2023-08-17T15:24:48.444Z,11.10
2023-08-17T15:27:20.003Z,8.70
2023-08-17T15:29:51.269Z,6.40
2023-08-17T15:32:22.469Z,6.40
2023-08-17T15:34:54.921Z,7.20
2023-08-17T15:37:29.870Z,5.60
2023-08-17T15:40:01.286Z,9.40
2023-08-17T15:42:31.861Z,5.70
2023-08-17T15:45:02.681Z,8.00
2023-08-17T15:47:34.031Z,5.90
2023-08-17T15:50:05.678Z,6.20
2023-08-17T15:52:36.297Z,6.60
2023-08-17T15:55:08.828Z,4.60
2023-08-17T15:57:40.031Z,5.60
2023-08-17T16:00:13.028Z,5.70
2023-08-17T16:02:44.204Z,11.60
2023-08-17T16:05:15.405Z,6.20
2023-08-17T16:07:46.394Z,4.20
2023-08-17T16:10:17.024Z,5.00
2023-08-17T16:12:47.811Z,4.80
2023-08-17T16:15:19.258Z,6.10
2023-08-17T16:17:50.264Z,6.40
2023-08-17T16:20:21.056Z,3.50
2023-08-17T16:22:52.724Z,4.10
2023-08-17T16:25:29.837Z,4.40
2023-08-17T16:30:29.871Z,2.90
2023-08-17T16:33:00.458Z,3.60
2023-08-17T16:35:31.537Z,5.30
2023-08-17T16:38:02.614Z,4.90
2023-08-17T16:40:38.173Z,3.10
2023-08-17T16:43:09.804Z,3.20
2023-08-17T16:45:42.018Z,2.90
2023-08-17T16:48:12.745Z,3.70
2023-08-17T16:50:43.608Z,5.30
2023-08-17T16:53:14.562Z,4.80
2023-08-17T16:55:48.649Z,3.20
2023-08-17T16:58:25.626Z,4.30
2023-08-17T17:00:56.892Z,3.40
2023-08-17T17:03:28.281Z,6.10
2023-08-17T17:05:59.408Z,5.00
2023-08-17T17:08:46.934Z,5.20
2023-08-17T17:11:17.541Z,4.20
2023-08-17T17:13:48.693Z,7.80
2023-08-17T17:16:21.272Z,3.90
2023-08-17T17:18:52.636Z,7.60
2023-08-17T17:21:24.299Z,4.80
2023-08-17T17:23:54.924Z,4.40
2023-08-17T17:26:26.219Z,3.30
2023-08-17T17:28:57.047Z,4.30
2023-08-17T17:31:28.320Z,3.80
2023-08-17T17:33:58.988Z,3.70
2023-08-17T17:36:29.931Z,7.80
2023-08-17T17:39:01.230Z,7.40
2023-08-17T17:41:31.989Z,10.30
2023-08-17T17:44:03.254Z,5.00
2023-08-17T17:46:35.045Z,5.90
2023-08-17T17:49:07.405Z,6.40
2023-08-17T17:51:38.224Z,6.10
2023-08-17T17:54:09.566Z,4.40
2023-08-17T17:56:44.164Z,4.70
2023-08-17T17:59:15.386Z,4.20
2023-08-17T18:01:45.998Z,5.00
2023-08-17T18:04:16.762Z,7.60
2023-08-17T18:06:47.496Z,4.80
2023-08-17T18:09:17.933Z,7.00
2023-08-17T18:11:48.370Z,8.30
2023-08-17T18:14:20.499Z,5.10
2023-08-17T18:16:51.153Z,5.00
2023-08-17T18:19:21.788Z,8.90
2023-08-17T18:21:52.540Z,5.20
2023-08-17T18:24:23.164Z,4.10
2023-08-17T18:26:54.690Z,5.90
2023-08-17T18:29:25.778Z,4.50
2023-08-17T18:31:56.443Z,7.30
2023-08-17T18:34:27.198Z,6.90
2023-08-17T18:36:57.838Z,5.30
2023-08-17T18:39:28.586Z,6.20
2023-08-17T18:41:59.200Z,8.60
2023-08-17T18:44:30.096Z,6.80
2023-08-17T18:47:00.710Z,4.70
2023-08-17T18:49:31.560Z,5.00
2023-08-17T18:52:02.835Z,9.40
2023-08-17T18:54:37.641Z,6.40
2023-08-17T18:57:08.514Z,5.80
2023-08-17T18:59:39.565Z,4.10
2023-08-17T19:02:10.646Z,9.80
2023-08-17T19:04:41.529Z,6.20
2023-08-17T19:07:12.137Z,4.90
2023-08-17T19:09:47.070Z,6.00
2023-08-17T19:12:19.289Z,11.40
2023-08-17T19:14:50.184Z,6.90
2023-08-17T19:17:21.842Z,4.90
2023-08-17T19:19:52.776Z,6.40
2023-08-17T19:22:23.635Z,8.70
2023-08-17T19:24:54.193Z,5.80
2023-08-17T19:27:25.086Z,6.50
2023-08-17T19:29:55.581Z,4.90
2023-08-17T19:32:27.025Z,5.70
2023-08-17T19:34:58.555Z,8.80
2023-08-17T19:37:31.945Z,7.00
2023-08-17T19:40:05.020Z,11.00
2023-08-17T19:42:35.794Z,10.40
2023-08-17T19:45:07.190Z,9.80
2023-08-17T19:47:38.180Z,8.50
2023-08-17T19:50:10.835Z,7.10
2023-08-17T19:52:41.572Z,26.70
2023-08-17T19:55:14.188Z,8.40
2023-08-17T19:57:44.662Z,19.30
2023-08-17T20:00:19.245Z,6.50
2023-08-17T20:02:51.758Z,8.80
2023-08-17T20:05:22.349Z,12.20
2023-08-17T20:07:53.057Z,9.90
2023-08-17T20:10:23.851Z,9.90
2023-08-17T20:12:55.528Z,11.60
2023-08-17T20:15:26.948Z,13.30
2023-08-17T20:17:58.047Z,7.50
2023-08-17T20:20:28.794Z,9.20
2023-08-17T20:23:00.321Z,8.80
2023-08-17T20:25:31.286Z,8.80
2023-08-17T20:28:02.443Z,8.60
2023-08-17T20:30:33.465Z,10.10
2023-08-17T20:33:04.554Z,8.60
2023-08-17T20:35:35.720Z,9.10
2023-08-17T20:38:06.733Z,10.50
2023-08-17T20:40:37.466Z,10.50
2023-08-17T20:43:08.345Z,9.00
2023-08-17T20:45:40.921Z,10.50
2023-08-17T20:48:11.943Z,8.20
2023-08-17T20:50:45.190Z,10.50
2023-08-17T20:53:17.141Z,10.00
2023-08-17T20:55:49.113Z,7.70
2023-08-17T20:58:20.104Z,10.00
2023-08-17T21:00:51.311Z,12.90
2023-08-17T21:03:22.328Z,11.90
2023-08-17T21:05:53.482Z,11.00
2023-08-17T21:08:23.986Z,11.10
2023-08-17T21:10:55.283Z,12.10
2023-08-17T21:13:26.002Z,12.50
2023-08-17T21:16:06.692Z,11.60
2023-08-17T21:18:37.972Z,11.60
2023-08-17T21:21:09.243Z,17.70
2023-08-17T21:23:39.798Z,16.70
2023-08-17T21:26:10.541Z,29.50
2023-08-17T21:28:41.585Z,14.40
2023-08-17T21:31:12.308Z,12.60
2023-08-17T21:33:42.908Z,12.40
2023-08-17T21:36:13.850Z,10.00
2023-08-17T21:38:44.896Z,12.70
2023-08-17T21:41:16.186Z,14.00
2023-08-17T21:43:47.198Z,15.20
2023-08-17T21:46:18.265Z,11.20
2023-08-17T21:48:49.280Z,23.60
2023-08-17T21:51:20.666Z,9.40
2023-08-17T21:53:51.199Z,13.00
2023-08-17T21:56:21.857Z,14.60
2023-08-17T21:58:53.084Z,14.80
2023-08-17T22:01:24.534Z,12.00
2023-08-17T22:03:55.207Z,15.00
2023-08-17T22:06:26.249Z,13.70
2023-08-17T22:08:57.071Z,12.00
2023-08-17T22:11:28.057Z,12.80
2023-08-17T22:13:58.914Z,10.50
2023-08-17T22:16:29.954Z,15.70
2023-08-17T22:19:01.120Z,12.40
2023-08-17T22:21:32.855Z,12.70
2023-08-17T22:24:03.417Z,14.40
2023-08-17T22:26:34.525Z,19.90
2023-08-17T22:29:05.540Z,18.70
2023-08-17T22:31:36.488Z,15.70
2023-08-17T22:34:07.354Z,14.60
2023-08-17T22:36:37.915Z,15.20
2023-08-17T22:39:09.283Z,15.50
2023-08-17T22:41:40.249Z,20.70
2023-08-17T22:44:10.836Z,18.20
2023-08-17T22:46:41.957Z,18.20
2023-08-17T22:49:12.955Z,17.80
2023-08-17T22:51:43.563Z,14.60
2023-08-17T22:54:14.191Z,17.60
2023-08-17T22:56:45.746Z,15.70
2023-08-17T22:59:16.373Z,19.20
2023-08-17T23:01:47.588Z,23.00
2023-08-17T23:04:19.767Z,22.00
2023-08-17T23:06:51.044Z,13.80
2023-08-17T23:09:21.645Z,18.80
2023-08-17T23:11:52.288Z,16.60
2023-08-17T23:14:23.814Z,18.30
2023-08-17T23:16:55.271Z,16.30
2023-08-17T23:19:26.060Z,17.10
2023-08-17T23:21:57.302Z,17.80
2023-08-17T23:24:27.994Z,12.60
2023-08-17T23:26:59.817Z,15.40
2023-08-17T23:29:31.150Z,17.10
2023-08-17T23:32:09.295Z,16.10
2023-08-17T23:34:51.744Z,15.80
2023-08-17T23:37:22.418Z,15.40
2023-08-17T23:39:53.134Z,22.10
2023-08-17T23:42:23.798Z,16.60
2023-08-17T23:44:54.632Z,17.00
2023-08-17T23:47:25.569Z,18.40
2023-08-17T23:49:56.326Z,19.80
2023-08-17T23:52:27.048Z,17.10
2023-08-17T23:54:57.802Z,18.40
2023-08-17T23:57:29.529Z,16.10
